TimeCDT,TemperatureF,Dew PointF,Humidity,Sea Level PressureIn,VisibilityMPH,Wind Direction,Wind SpeedMPH,Gust SpeedMPH,PrecipitationIn,Events,Conditions,WindDirDegrees,DateUTC
12:54 AM,43.0,28.0,56,29.91,10.0,West,6.9,25.3,N/A,,Clear,280,2012-10-05 05:54:00
1:54 AM,41.0,28.0,60,29.92,10.0,WSW,11.5,19.6,N/A,,Partly Cloudy,250,2012-10-05 06:54:00
2:54 AM,39.9,27.0,60,29.91,10.0,WSW,8.1,-,N/A,,Scattered Clouds,250,2012-10-05 07:54:00
3:54 AM,39.9,27.0,60,29.92,10.0,WSW,10.4,-,N/A,,Mostly Cloudy,250,2012-10-05 08:54:00
4:54 AM,39.9,27.0,60,29.91,10.0,West,10.4,20.7,N/A,,Mostly Cloudy,260,2012-10-05 09:54:00
5:54 AM,39.9,27.0,60,29.91,10.0,WSW,10.4,19.6,N/A,,Overcast,250,2012-10-05 10:54:00
6:54 AM,41.0,27.0,57,29.92,10.0,West,10.4,28.8,N/A,,Overcast,260,2012-10-05 11:54:00
7:54 AM,41.0,27.0,57,29.91,10.0,West,11.5,20.7,N/A,,Overcast,260,2012-10-05 12:54:00
8:54 AM,41.0,26.1,55,29.92,10.0,West,15.0,24.2,N/A,,Overcast,260,2012-10-05 13:54:00
9:54 AM,43.0,26.1,51,29.92,10.0,West,16.1,21.9,N/A,,Overcast,280,2012-10-05 14:54:00
10:54 AM,43.0,26.1,51,29.93,10.0,West,19.6,27.6,N/A,,Overcast,270,2012-10-05 15:54:00
12:54 PM,44.1,26.1,49,29.92,10.0,West,13.8,25.3,N/A,,Overcast,280,2012-10-05 17:54:00
1:54 PM,44.1,26.1,49,29.91,10.0,West,13.8,23.0,N/A,,Overcast,280,2012-10-05 18:54:00
2:54 PM,43.0,26.1,51,29.92,10.0,West,12.7,26.5,N/A,,Overcast,280,2012-10-05 19:54:00
3:54 PM,43.0,26.1,51,29.92,10.0,West,11.5,24.2,N/A,,Overcast,270,2012-10-05 20:54:00
4:54 PM,42.1,25.0,51,29.94,10.0,West,16.1,25.3,N/A,,Overcast,280,2012-10-05 21:54:00
5:54 PM,41.0,26.1,55,29.94,10.0,West,9.2,20.7,N/A,,Overcast,260,2012-10-05 22:54:00
6:54 PM,41.0,25.0,53,29.93,10.0,West,11.5,18.4,N/A,,Overcast,270,2012-10-05 23:54:00
7:54 PM,39.9,26.1,58,29.94,10.0,West,10.4,-,N/A,,Overcast,260,2012-10-06 00:54:00
8:54 PM,39.9,27.0,60,29.93,10.0,West,10.4,-,N/A,,Overcast,260,2012-10-06 01:54:00
9:54 PM,39.0,27.0,62,29.92,10.0,West,10.4,17.3,N/A,,Overcast,270,2012-10-06 02:54:00
10:54 PM,39.0,28.9,67,29.91,10.0,WNW,15.0,24.2,N/A,,Partly Cloudy,290,2012-10-06 03:54:00
11:54 PM,37.9,30.0,73,29.90,10.0,West,15.0,25.3,N/A,,Clear,280,2012-10-06 04:54:00